A- A+ FrançaisEnglishEspañol中国

最近的 LFBT Tarbes-Lourdes-PyrénéesLFLY Lyon-Bron LFLL Lyon-Saint-Exupéry LFBP Pau-Pyrénées

飞行员的航空天气,使用METAR(气象机场报告)进行的飞行准备和TAF(终端机场预报:针对以下情况的短期天气预报)航空)。 以及其他资源,例如VAC(目视进近图)和NOTAM(通知飞行员)以进行预试飞行.

METAR, TAF, VAC, NOTAM Hohenfels Mil机场 (Allemagne) / OACI ETIH

Hohenfels Mil机场的高度为443 m=1453 ft. 它位于附近 (Allemagne). 可提供5天天气预报 Pöllnricht 位于 0.7 km.

METAR Hohenfels Mil机场的 - ETIH

ETIH 280840Z AUTO 20004KT 9999 FEW014 FEW060 05/03 A2950 RMK AO2 RAB24E33RAB35E40 SLP007 $

Hohenfels Mil机场METAR解码 (DE)

ETIH机场发行的METAR日期mardi 28 janvier 2020至08:40 GMT. 这是一个自动生成的METAR. 警告:此METAR已过期,已于1060分钟前发布.

可见度为大于 10 km = 大于6.2 sm.

温度为5°C = 41 °F 露点为3°C = 37 °F 。 这相当于87%的相对湿度。.

QNH是999 hPa = 29.5 inHg

的风4 kt = 7 km/h, 风向为200°.

云:处少云1400 ft=430云. 处少云6000 ft=1830云.

备注 AO2 RAB24E33RAB35E40 SLP007 $

TAF Hohenfels Mil机场的 - ETIH

没有TAF

附近的机场Hohenfels Mil

Pöllnricht的一般天气5天预报 (0.7 km)

EDNR Regensburg Oberhub机场 (20 km)EDPF Schwandorf机场 (29 km)EDPO Neumarkt Oberpfalz机场 (29 km)EDPQ Schmidgaden Oberpfalz机场 (30 km)EDNM Nittenau Bruck机场 (33 km)EDNC Beilngries机场 (34 km)ETOI Vilseck Mil机场 (46 km)

Hohenfels Mil机场的NOTAM

提供的NOTAM不能保证其时事性。 在将其用于飞行准备或在飞行期间使用之前,飞行员是唯一负责验证其有效性的人员。

NOTAM Aerodrome control tower (从 jeudi 23 janvier 2020 时间上午 07:00 到 dimanche 2 février 2020 时间上午 15:00)

P0304/20 NOTAMN
Q) EDMM/QSTAH/IV/BO /A /000/999/4913N01150E005
A) ETIH B) 2001230700 C) 2002021500
E) TOWER HOURS OF SERVICE CHANGED TO H24.
CREATED: 21 Jan 2020 08:51:00
SOURCE: ETCZYOYX

数据源